createdAt,value
2022-11-29T00:00:17.672Z,23.90
2022-11-29T00:05:21.346Z,30.70
2022-11-29T00:10:26.443Z,32.03
2022-11-29T00:15:30.181Z,30.35
2022-11-29T00:20:35.230Z,29.52
2022-11-29T00:25:40.996Z,28.98
2022-11-29T00:30:44.749Z,24.90
2022-11-29T00:35:48.492Z,24.77
2022-11-29T00:40:53.979Z,33.33
2022-11-29T00:45:57.904Z,30.42
2022-11-29T00:51:01.572Z,34.95
2022-11-29T00:56:07.455Z,28.90
2022-11-29T01:01:11.778Z,30.92
2022-11-29T01:06:17.155Z,24.70
2022-11-29T01:11:24.020Z,28.45
2022-11-29T01:16:28.939Z,28.38
2022-11-29T01:21:32.757Z,24.52
2022-11-29T01:26:37.816Z,23.42
2022-11-29T01:31:41.621Z,24.67
2022-11-29T01:36:45.329Z,19.38
2022-11-29T01:41:50.418Z,20.77
2022-11-29T01:46:55.305Z,21.20
2022-11-29T01:52:03.853Z,21.27
2022-11-29T01:57:10.888Z,20.77
2022-11-29T02:07:19.786Z,21.15
2022-11-29T02:12:30.825Z,18.38
2022-11-29T02:17:42.938Z,17.25
2022-11-29T02:22:54.910Z,19.17
2022-11-29T02:28:35.016Z,16.25
2022-11-29T02:34:08.127Z,18.55
2022-11-29T02:39:40.508Z,16.83
2022-11-29T02:45:08.300Z,17.45
2022-11-29T02:50:25.555Z,15.88
2022-11-29T02:55:34.591Z,18.88
2022-11-29T03:00:47.567Z,17.60
2022-11-29T03:05:58.418Z,16.42
2022-11-29T03:11:07.855Z,15.95
2022-11-29T03:16:19.461Z,21.02
2022-11-29T03:21:42.078Z,13.80
2022-11-29T03:26:50.601Z,11.55
2022-11-29T03:32:01.534Z,14.90
2022-11-29T03:37:12.464Z,13.10
2022-11-29T03:42:22.976Z,12.30
2022-11-29T03:47:32.571Z,12.75
2022-11-29T03:52:47.690Z,13.05
2022-11-29T03:58:02.401Z,14.13
2022-11-29T04:03:38.571Z,12.57
2022-11-29T04:09:13.782Z,20.53
2022-11-29T04:14:32.230Z,16.23
2022-11-29T04:20:03.610Z,15.25
2022-11-29T04:25:35.821Z,13.75
2022-11-29T04:30:49.180Z,11.80
2022-11-29T04:36:25.298Z,25.60
2022-11-29T04:41:47.379Z,13.13
2022-11-29T04:47:08.824Z,19.90
2022-11-29T04:52:37.947Z,34.70
2022-11-29T04:57:49.111Z,11.13
2022-11-29T05:02:57.367Z,11.35
2022-11-29T05:08:17.362Z,14.40
2022-11-29T05:13:32.736Z,11.95
2022-11-29T05:19:06.480Z,15.35
2022-11-29T05:24:25.132Z,11.88
2022-11-29T05:29:38.660Z,24.88
2022-11-29T05:34:59.222Z,13.25
2022-11-29T05:40:28.715Z,41.17
2022-11-29T05:45:39.519Z,43.05
2022-11-29T05:50:48.962Z,23.08
2022-11-29T05:56:03.720Z,22.65
2022-11-29T06:01:19.536Z,22.55
2022-11-29T06:06:33.815Z,10.68
2022-11-29T06:11:43.480Z,11.52
2022-11-29T06:17:19.932Z,10.82
2022-11-29T06:22:43.030Z,14.82
2022-11-29T06:28:04.572Z,14.70
2022-11-29T06:33:18.022Z,34.95
2022-11-29T06:38:24.778Z,12.35
2022-11-29T06:43:29.180Z,24.75
2022-11-29T06:48:40.313Z,16.60
2022-11-29T06:53:49.528Z,16.33
2022-11-29T06:59:02.425Z,14.10
2022-11-29T07:04:26.490Z,15.82
2022-11-29T07:09:35.650Z,14.90
2022-11-29T07:14:40.011Z,15.95
2022-11-29T07:19:54.820Z,23.90
2022-11-29T07:25:04.555Z,20.85
2022-11-29T07:30:15.358Z,19.15
2022-11-29T07:35:25.753Z,16.48
2022-11-29T07:40:37.963Z,20.20
2022-11-29T07:45:42.024Z,30.17
2022-11-29T07:50:47.371Z,24.50
2022-11-29T07:55:51.770Z,20.13
2022-11-29T08:00:55.593Z,27.65
2022-11-29T08:06:00.791Z,28.00
2022-11-29T08:11:10.583Z,38.63
2022-11-29T08:16:18.648Z,36.05
2022-11-29T08:21:23.772Z,36.70
2022-11-29T08:26:31.567Z,25.70
2022-11-29T08:31:36.000Z,31.42
2022-11-29T08:36:41.036Z,32.67
2022-11-29T08:41:45.125Z,46.20
2022-11-29T08:47:06.397Z,33.20
2022-11-29T08:52:30.670Z,39.47
2022-11-29T08:57:41.635Z,35.25
2022-11-29T09:02:45.444Z,34.45
2022-11-29T09:07:50.639Z,39.58
2022-11-29T09:12:54.479Z,44.92
2022-11-29T09:17:58.559Z,41.88
2022-11-29T09:23:04.060Z,44.28
2022-11-29T09:28:08.673Z,43.88
2022-11-29T09:33:12.360Z,38.67
2022-11-29T09:38:17.418Z,36.80
2022-11-29T09:43:30.947Z,27.40
2022-11-29T09:49:04.868Z,29.63
2022-11-29T09:54:24.529Z,26.38
2022-11-29T09:59:33.486Z,29.33
2022-11-29T10:04:42.088Z,31.67
2022-11-29T10:09:51.567Z,27.60
2022-11-29T10:15:03.546Z,32.40
2022-11-29T10:20:13.890Z,24.60
2022-11-29T10:25:26.049Z,25.60
2022-11-29T10:30:29.909Z,26.10
2022-11-29T10:35:34.825Z,34.65
2022-11-29T10:40:43.153Z,31.20
2022-11-29T10:45:50.690Z,30.38
2022-11-29T10:50:54.834Z,51.25
2022-11-29T10:56:03.088Z,29.42
2022-11-29T11:01:08.550Z,28.73
2022-11-29T11:06:15.612Z,38.47
2022-11-29T11:11:28.250Z,28.63
2022-11-29T11:16:37.051Z,30.35
2022-11-29T11:21:41.486Z,30.67
2022-11-29T11:26:47.026Z,26.30
2022-11-29T11:31:56.123Z,36.65
2022-11-29T11:37:20.004Z,34.63
2022-11-29T11:42:38.105Z,31.25
2022-11-29T11:47:45.739Z,35.15
2022-11-29T11:52:53.454Z,36.45
2022-11-29T11:58:09.676Z,33.10
2022-11-29T12:08:34.018Z,42.25
2022-11-29T12:13:45.536Z,43.08
2022-11-29T12:18:53.069Z,35.80
2022-11-29T12:24:03.411Z,35.85
2022-11-29T12:29:15.394Z,41.55
2022-11-29T12:34:43.258Z,41.70
2022-11-29T12:39:57.591Z,35.65
2022-11-29T12:45:20.433Z,46.38
2022-11-29T12:50:36.474Z,40.83
2022-11-29T12:55:50.085Z,41.97
2022-11-29T13:01:07.227Z,35.80
2022-11-29T13:06:22.196Z,38.97
2022-11-29T13:11:30.237Z,35.83
2022-11-29T13:16:46.452Z,35.58
2022-11-29T13:21:58.793Z,32.07
2022-11-29T13:27:05.496Z,42.45
2022-11-29T13:32:32.575Z,32.13
2022-11-29T13:37:48.419Z,32.67
2022-11-29T13:43:03.343Z,37.47
2022-11-29T13:53:49.150Z,36.63
2022-11-29T13:58:54.924Z,38.38
2022-11-29T14:04:05.518Z,43.78
2022-11-29T14:09:25.858Z,40.65
2022-11-29T14:14:33.502Z,40.58
2022-11-29T14:19:38.167Z,44.67
2022-11-29T14:24:44.527Z,45.83
2022-11-29T14:29:55.695Z,39.30
2022-11-29T14:35:03.176Z,52.22
2022-11-29T14:40:23.588Z,40.30
2022-11-29T14:45:29.714Z,41.92
2022-11-29T14:50:36.847Z,47.13
2022-11-29T15:01:09.967Z,42.58
2022-11-29T15:06:25.206Z,49.78
2022-11-29T15:11:41.208Z,43.65
2022-11-29T15:16:57.372Z,46.97
2022-11-29T15:22:07.418Z,42.77
2022-11-29T15:27:14.689Z,55.28
2022-11-29T15:32:24.078Z,56.55
2022-11-29T15:37:42.742Z,48.58
2022-11-29T15:42:52.790Z,39.72
2022-11-29T15:47:57.138Z,52.08
2022-11-29T15:53:06.203Z,41.38
2022-11-29T15:58:15.106Z,43.53
2022-11-29T16:03:25.311Z,49.70
2022-11-29T16:08:34.121Z,41.70
2022-11-29T16:13:41.054Z,40.70
2022-11-29T16:18:46.296Z,45.38
2022-11-29T16:23:50.321Z,50.17
2022-11-29T16:28:57.930Z,52.40
2022-11-29T16:34:09.771Z,49.22
2022-11-29T16:39:23.771Z,52.83
2022-11-29T16:45:30.994Z,44.60
2022-11-29T16:50:34.993Z,47.70
2022-11-29T16:55:38.784Z,42.15
2022-11-29T17:00:44.298Z,44.28
2022-11-29T17:05:48.159Z,45.90
2022-11-29T17:10:51.777Z,52.88
2022-11-29T17:15:56.975Z,44.55
2022-11-29T17:21:00.879Z,49.55
2022-11-29T17:26:04.771Z,47.45
2022-11-29T17:31:15.019Z,56.35
2022-11-29T17:36:21.015Z,45.05
2022-11-29T17:41:26.142Z,43.40
2022-11-29T17:46:33.003Z,53.17
2022-11-29T17:51:55.452Z,52.28
2022-11-29T17:56:59.386Z,58.55
2022-11-29T18:02:04.719Z,65.35
2022-11-29T18:07:08.452Z,61.80
2022-11-29T18:12:12.400Z,66.05
2022-11-29T18:17:20.080Z,54.20
2022-11-29T18:22:23.774Z,53.45
2022-11-29T18:27:27.661Z,54.90
2022-11-29T18:32:33.372Z,49.45
2022-11-29T18:38:12.889Z,50.17
2022-11-29T18:43:00.828Z,51.45
2022-11-29T18:48:06.772Z,61.20
2022-11-29T18:53:10.583Z,45.25
2022-11-29T18:58:14.368Z,52.75
2022-11-29T19:03:19.497Z,49.22
2022-11-29T19:08:23.347Z,51.05
2022-11-29T19:13:27.042Z,55.72
2022-11-29T19:18:32.862Z,52.50
2022-11-29T19:23:36.927Z,63.00
2022-11-29T19:28:42.140Z,54.10
2022-11-29T19:33:48.423Z,59.90
2022-11-29T19:38:54.058Z,58.83
2022-11-29T19:43:59.406Z,40.40
2022-11-29T19:49:06.867Z,53.13
2022-11-29T19:54:12.220Z,59.97
2022-11-29T19:59:16.299Z,48.72
2022-11-29T20:04:22.126Z,55.88
2022-11-29T20:09:28.817Z,46.45
2022-11-29T20:14:32.580Z,48.22
2022-11-29T20:19:38.334Z,53.25
2022-11-29T20:24:45.585Z,51.58
2022-11-29T20:29:50.288Z,48.03
2022-11-29T20:34:56.639Z,48.20
2022-11-29T20:40:07.676Z,46.30
2022-11-29T20:45:13.317Z,41.38
2022-11-29T20:50:23.815Z,40.88
2022-11-29T20:55:27.942Z,41.60
2022-11-29T21:00:32.141Z,41.72
2022-11-29T21:05:40.231Z,42.95
2022-11-29T21:10:45.943Z,36.72
2022-11-29T21:15:50.841Z,36.85
2022-11-29T21:21:05.333Z,40.08
2022-11-29T21:26:15.164Z,38.78
2022-11-29T21:31:20.043Z,43.90
2022-11-29T21:36:25.475Z,41.78
2022-11-29T21:41:29.428Z,40.13
2022-11-29T21:46:33.102Z,37.65
2022-11-29T21:51:38.122Z,39.85
2022-11-29T21:56:41.863Z,49.22
2022-11-29T22:01:45.749Z,45.28
2022-11-29T22:06:50.973Z,38.55
2022-11-29T22:11:54.919Z,54.50
2022-11-29T22:17:00.309Z,40.42
2022-11-29T22:22:09.221Z,42.88
2022-11-29T22:27:12.999Z,42.80
2022-11-29T22:32:16.732Z,50.88
2022-11-29T22:37:21.784Z,44.97
2022-11-29T22:42:25.891Z,46.30
2022-11-29T22:47:29.588Z,50.60
2022-11-29T22:52:34.616Z,44.65
2022-11-29T22:57:38.329Z,52.25
2022-11-29T23:02:42.042Z,46.15
2022-11-29T23:07:47.823Z,51.67
2022-11-29T23:12:51.712Z,42.95
2022-11-29T23:17:55.502Z,43.33
2022-11-29T23:23:00.662Z,48.45
2022-11-29T23:28:04.409Z,47.00
2022-11-29T23:33:08.097Z,47.22
2022-11-29T23:38:13.217Z,49.63
2022-11-29T23:43:16.926Z,48.88
2022-11-29T23:48:20.754Z,42.67
2022-11-29T23:53:25.854Z,44.92
2022-11-29T23:58:30.795Z,42.13
